sensor_id;sensor_type;location;lat;lon;timestamp;P1;durP1;ratioP1;P2;durP2;ratioP2
33266;SDS011;19638;49.080;11.896;2023-03-23T00:03:56;11.17;;;4.73;;
33266;SDS011;19638;49.080;11.896;2023-03-23T00:07:59;9.07;;;5.63;;
33266;SDS011;19638;49.080;11.896;2023-03-23T00:12:07;10.77;;;5.13;;
33266;SDS011;19638;49.080;11.896;2023-03-23T00:16:09;8.60;;;5.00;;
33266;SDS011;19638;49.080;11.896;2023-03-23T00:20:19;8.13;;;5.70;;
33266;SDS011;19638;49.080;11.896;2023-03-23T00:24:24;8.23;;;5.70;;
33266;SDS011;19638;49.080;11.896;2023-03-23T00:28:26;12.65;;;5.75;;
33266;SDS011;19638;49.080;11.896;2023-03-23T00:32:29;8.13;;;5.50;;
33266;SDS011;19638;49.080;11.896;2023-03-23T00:36:33;8.18;;;5.15;;
33266;SDS011;19638;49.080;11.896;2023-03-23T00:40:43;7.57;;;4.90;;
33266;SDS011;19638;49.080;11.896;2023-03-23T00:44:45;8.37;;;5.47;;
33266;SDS011;19638;49.080;11.896;2023-03-23T00:48:47;8.18;;;5.53;;
33266;SDS011;19638;49.080;11.896;2023-03-23T00:52:52;8.97;;;5.80;;
33266;SDS011;19638;49.080;11.896;2023-03-23T00:56:58;8.90;;;5.40;;
33266;SDS011;19638;49.080;11.896;2023-03-23T01:01:03;11.87;;;5.23;;
33266;SDS011;19638;49.080;11.896;2023-03-23T01:05:05;9.93;;;5.43;;
33266;SDS011;19638;49.080;11.896;2023-03-23T01:09:09;10.13;;;5.57;;
33266;SDS011;19638;49.080;11.896;2023-03-23T01:13:14;7.90;;;4.53;;
33266;SDS011;19638;49.080;11.896;2023-03-23T01:17:33;10.83;;;5.10;;
33266;SDS011;19638;49.080;11.896;2023-03-23T01:21:35;8.73;;;5.30;;
33266;SDS011;19638;49.080;11.896;2023-03-23T01:25:38;5.83;;;4.37;;
33266;SDS011;19638;49.080;11.896;2023-03-23T01:29:40;8.27;;;4.97;;
33266;SDS011;19638;49.080;11.896;2023-03-23T01:33:47;5.68;;;4.65;;
33266;SDS011;19638;49.080;11.896;2023-03-23T01:37:51;6.83;;;4.80;;
33266;SDS011;19638;49.080;11.896;2023-03-23T01:41:54;12.40;;;4.90;;
33266;SDS011;19638;49.080;11.896;2023-03-23T01:45:56;6.57;;;5.47;;
33266;SDS011;19638;49.080;11.896;2023-03-23T01:49:59;11.23;;;4.80;;
33266;SDS011;19638;49.080;11.896;2023-03-23T01:54:02;9.30;;;4.27;;
33266;SDS011;19638;49.080;11.896;2023-03-23T01:58:12;6.80;;;4.50;;
33266;SDS011;19638;49.080;11.896;2023-03-23T02:02:14;6.47;;;4.57;;
33266;SDS011;19638;49.080;11.896;2023-03-23T02:06:19;9.43;;;4.87;;
33266;SDS011;19638;49.080;11.896;2023-03-23T02:10:22;6.83;;;4.53;;
33266;SDS011;19638;49.080;11.896;2023-03-23T02:14:26;6.30;;;4.50;;
33266;SDS011;19638;49.080;11.896;2023-03-23T02:18:35;6.90;;;4.47;;
33266;SDS011;19638;49.080;11.896;2023-03-23T02:23:01;5.57;;;3.87;;
33266;SDS011;19638;49.080;11.896;2023-03-23T02:27:18;5.23;;;3.60;;
33266;SDS011;19638;49.080;11.896;2023-03-23T02:31:40;7.35;;;3.85;;
33266;SDS011;19638;49.080;11.896;2023-03-23T02:36:17;7.77;;;4.43;;
33266;SDS011;19638;49.080;11.896;2023-03-23T02:40:25;5.10;;;4.07;;
33266;SDS011;19638;49.080;11.896;2023-03-23T02:44:34;5.60;;;3.60;;
33266;SDS011;19638;49.080;11.896;2023-03-23T02:48:38;4.87;;;3.30;;
33266;SDS011;19638;49.080;11.896;2023-03-23T02:52:50;6.82;;;4.13;;
33266;SDS011;19638;49.080;11.896;2023-03-23T02:56:54;7.50;;;3.70;;
33266;SDS011;19638;49.080;11.896;2023-03-23T03:00:57;5.00;;;3.73;;
33266;SDS011;19638;49.080;11.896;2023-03-23T03:05:22;4.70;;;3.10;;
33266;SDS011;19638;49.080;11.896;2023-03-23T03:09:36;4.93;;;3.50;;
33266;SDS011;19638;49.080;11.896;2023-03-23T03:13:45;4.93;;;3.25;;
33266;SDS011;19638;49.080;11.896;2023-03-23T03:17:54;4.53;;;3.10;;
33266;SDS011;19638;49.080;11.896;2023-03-23T03:22:00;3.40;;;2.90;;
33266;SDS011;19638;49.080;11.896;2023-03-23T03:26:09;6.40;;;3.17;;
33266;SDS011;19638;49.080;11.896;2023-03-23T03:30:20;4.80;;;3.40;;
33266;SDS011;19638;49.080;11.896;2023-03-23T03:34:25;6.13;;;3.92;;
33266;SDS011;19638;49.080;11.896;2023-03-23T03:38:27;6.33;;;3.47;;
33266;SDS011;19638;49.080;11.896;2023-03-23T03:42:44;5.97;;;3.95;;
33266;SDS011;19638;49.080;11.896;2023-03-23T03:46:47;7.85;;;3.88;;
33266;SDS011;19638;49.080;11.896;2023-03-23T03:50:49;7.68;;;4.18;;
33266;SDS011;19638;49.080;11.896;2023-03-23T03:54:52;5.32;;;4.22;;
33266;SDS011;19638;49.080;11.896;2023-03-23T03:58:58;5.22;;;3.60;;
33266;SDS011;19638;49.080;11.896;2023-03-23T04:03:00;5.50;;;3.92;;
33266;SDS011;19638;49.080;11.896;2023-03-23T04:07:02;7.03;;;3.83;;
33266;SDS011;19638;49.080;11.896;2023-03-23T04:11:05;7.37;;;4.00;;
33266;SDS011;19638;49.080;11.896;2023-03-23T04:15:09;4.60;;;4.10;;
33266;SDS011;19638;49.080;11.896;2023-03-23T04:19:11;5.50;;;4.07;;
33266;SDS011;19638;49.080;11.896;2023-03-23T04:23:17;7.03;;;4.20;;
33266;SDS011;19638;49.080;11.896;2023-03-23T04:27:23;3.80;;;3.50;;
33266;SDS011;19638;49.080;11.896;2023-03-23T04:31:33;5.80;;;4.03;;
33266;SDS011;19638;49.080;11.896;2023-03-23T04:35:38;3.83;;;3.30;;
33266;SDS011;19638;49.080;11.896;2023-03-23T04:39:40;5.82;;;3.28;;
33266;SDS011;19638;49.080;11.896;2023-03-23T04:43:45;5.28;;;3.42;;
33266;SDS011;19638;49.080;11.896;2023-03-23T04:47:54;6.25;;;3.72;;
33266;SDS011;19638;49.080;11.896;2023-03-23T04:51:57;3.60;;;3.25;;
33266;SDS011;19638;49.080;11.896;2023-03-23T04:55:59;7.05;;;3.65;;
33266;SDS011;19638;49.080;11.896;2023-03-23T05:00:04;9.50;;;3.30;;
33266;SDS011;19638;49.080;11.896;2023-03-23T05:04:10;5.33;;;3.63;;
33266;SDS011;19638;49.080;11.896;2023-03-23T05:08:16;4.38;;;3.55;;
33266;SDS011;19638;49.080;11.896;2023-03-23T05:12:18;5.68;;;3.50;;
33266;SDS011;19638;49.080;11.896;2023-03-23T05:16:20;3.60;;;3.30;;
33266;SDS011;19638;49.080;11.896;2023-03-23T05:20:24;10.02;;;4.25;;
33266;SDS011;19638;49.080;11.896;2023-03-23T05:24:28;7.87;;;4.03;;
33266;SDS011;19638;49.080;11.896;2023-03-23T05:28:32;6.40;;;3.77;;
33266;SDS011;19638;49.080;11.896;2023-03-23T05:32:36;5.90;;;3.80;;
33266;SDS011;19638;49.080;11.896;2023-03-23T05:36:41;6.57;;;4.70;;
33266;SDS011;19638;49.080;11.896;2023-03-23T05:40:48;10.57;;;4.60;;
33266;SDS011;19638;49.080;11.896;2023-03-23T05:44:50;5.50;;;3.67;;
33266;SDS011;19638;49.080;11.896;2023-03-23T05:48:54;5.53;;;4.27;;
33266;SDS011;19638;49.080;11.896;2023-03-23T05:52:58;5.10;;;4.07;;
33266;SDS011;19638;49.080;11.896;2023-03-23T05:57:00;6.27;;;4.60;;
33266;SDS011;19638;49.080;11.896;2023-03-23T06:01:07;11.68;;;7.18;;
33266;SDS011;19638;49.080;11.896;2023-03-23T06:05:09;5.45;;;4.75;;
33266;SDS011;19638;49.080;11.896;2023-03-23T06:09:16;8.07;;;5.45;;
33266;SDS011;19638;49.080;11.896;2023-03-23T06:13:19;9.48;;;6.28;;
33266;SDS011;19638;49.080;11.896;2023-03-23T06:17:21;10.80;;;6.25;;
33266;SDS011;19638;49.080;11.896;2023-03-23T06:21:23;10.15;;;5.95;;
33266;SDS011;19638;49.080;11.896;2023-03-23T06:25:26;7.88;;;5.50;;
33266;SDS011;19638;49.080;11.896;2023-03-23T06:29:33;7.95;;;5.63;;
33266;SDS011;19638;49.080;11.896;2023-03-23T06:33:38;8.93;;;5.07;;
33266;SDS011;19638;49.080;11.896;2023-03-23T06:37:43;9.35;;;4.80;;
33266;SDS011;19638;49.080;11.896;2023-03-23T06:41:47;6.82;;;4.55;;
33266;SDS011;19638;49.080;11.896;2023-03-23T06:45:48;7.07;;;5.32;;
33266;SDS011;19638;49.080;11.896;2023-03-23T06:49:51;7.38;;;5.18;;
33266;SDS011;19638;49.080;11.896;2023-03-23T06:53:56;11.13;;;5.32;;
33266;SDS011;19638;49.080;11.896;2023-03-23T06:57:59;9.63;;;5.13;;
33266;SDS011;19638;49.080;11.896;2023-03-23T07:02:01;6.95;;;5.50;;
33266;SDS011;19638;49.080;11.896;2023-03-23T07:06:05;7.75;;;4.85;;
33266;SDS011;19638;49.080;11.896;2023-03-23T07:10:08;8.52;;;4.72;;
33266;SDS011;19638;49.080;11.896;2023-03-23T07:14:14;7.03;;;4.80;;
33266;SDS011;19638;49.080;11.896;2023-03-23T07:18:19;9.88;;;5.32;;
33266;SDS011;19638;49.080;11.896;2023-03-23T07:22:23;11.55;;;4.88;;
33266;SDS011;19638;49.080;11.896;2023-03-23T07:26:25;10.90;;;5.43;;
33266;SDS011;19638;49.080;11.896;2023-03-23T07:30:28;8.82;;;4.18;;
33266;SDS011;19638;49.080;11.896;2023-03-23T07:34:31;7.07;;;4.40;;
33266;SDS011;19638;49.080;11.896;2023-03-23T07:38:37;8.40;;;4.00;;
33266;SDS011;19638;49.080;11.896;2023-03-23T07:42:39;8.35;;;4.32;;
33266;SDS011;19638;49.080;11.896;2023-03-23T07:46:45;6.35;;;4.20;;
33266;SDS011;19638;49.080;11.896;2023-03-23T07:50:48;11.02;;;4.35;;
33266;SDS011;19638;49.080;11.896;2023-03-23T07:54:50;13.85;;;5.60;;
33266;SDS011;19638;49.080;11.896;2023-03-23T07:58:52;8.68;;;4.30;;
33266;SDS011;19638;49.080;11.896;2023-03-23T08:02:59;13.57;;;4.70;;
33266;SDS011;19638;49.080;11.896;2023-03-23T08:07:02;6.85;;;4.90;;
33266;SDS011;19638;49.080;11.896;2023-03-23T08:11:08;11.25;;;4.95;;
33266;SDS011;19638;49.080;11.896;2023-03-23T08:15:11;11.05;;;4.85;;
33266;SDS011;19638;49.080;11.896;2023-03-23T08:19:18;11.05;;;4.97;;
33266;SDS011;19638;49.080;11.896;2023-03-23T08:23:22;10.27;;;4.22;;
33266;SDS011;19638;49.080;11.896;2023-03-23T08:27:24;12.98;;;4.45;;
33266;SDS011;19638;49.080;11.896;2023-03-23T08:31:30;11.23;;;5.00;;
33266;SDS011;19638;49.080;11.896;2023-03-23T08:35:36;8.32;;;3.80;;
33266;SDS011;19638;49.080;11.896;2023-03-23T08:39:39;5.72;;;3.30;;
33266;SDS011;19638;49.080;11.896;2023-03-23T08:43:43;7.85;;;3.42;;
33266;SDS011;19638;49.080;11.896;2023-03-23T08:47:48;3.85;;;3.20;;
33266;SDS011;19638;49.080;11.896;2023-03-23T08:51:57;3.47;;;2.50;;
33266;SDS011;19638;49.080;11.896;2023-03-23T08:56:02;3.00;;;2.72;;
33266;SDS011;19638;49.080;11.896;2023-03-23T09:00:06;3.50;;;2.65;;
33266;SDS011;19638;49.080;11.896;2023-03-23T09:04:22;4.45;;;3.03;;
33266;SDS011;19638;49.080;11.896;2023-03-23T09:08:26;5.30;;;3.10;;
33266;SDS011;19638;49.080;11.896;2023-03-23T09:12:29;4.20;;;3.22;;
33266;SDS011;19638;49.080;11.896;2023-03-23T09:16:31;3.42;;;3.03;;
33266;SDS011;19638;49.080;11.896;2023-03-23T09:20:33;3.65;;;3.20;;
33266;SDS011;19638;49.080;11.896;2023-03-23T09:24:41;4.22;;;3.00;;
33266;SDS011;19638;49.080;11.896;2023-03-23T09:28:43;5.35;;;3.20;;
33266;SDS011;19638;49.080;11.896;2023-03-23T09:32:45;7.03;;;3.42;;
33266;SDS011;19638;49.080;11.896;2023-03-23T09:36:51;4.18;;;3.13;;
33266;SDS011;19638;49.080;11.896;2023-03-23T09:40:58;3.40;;;3.10;;
33266;SDS011;19638;49.080;11.896;2023-03-23T09:45:09;4.00;;;3.08;;
33266;SDS011;19638;49.080;11.896;2023-03-23T09:49:22;4.85;;;3.13;;
33266;SDS011;19638;49.080;11.896;2023-03-23T09:53:30;4.97;;;3.58;;
33266;SDS011;19638;49.080;11.896;2023-03-23T09:57:47;6.00;;;3.40;;
33266;SDS011;19638;49.080;11.896;2023-03-23T10:01:55;5.32;;;3.30;;
33266;SDS011;19638;49.080;11.896;2023-03-23T10:06:03;4.32;;;3.28;;
33266;SDS011;19638;49.080;11.896;2023-03-23T10:10:11;5.80;;;3.78;;
33266;SDS011;19638;49.080;11.896;2023-03-23T10:14:19;6.45;;;3.70;;
33266;SDS011;19638;49.080;11.896;2023-03-23T10:18:45;6.93;;;3.60;;
33266;SDS011;19638;49.080;11.896;2023-03-23T10:22:55;4.25;;;3.55;;
33266;SDS011;19638;49.080;11.896;2023-03-23T10:27:07;4.60;;;3.88;;
33266;SDS011;19638;49.080;11.896;2023-03-23T10:31:21;4.00;;;3.53;;
33266;SDS011;19638;49.080;11.896;2023-03-23T10:35:28;4.40;;;3.40;;
33266;SDS011;19638;49.080;11.896;2023-03-23T10:39:38;4.82;;;3.10;;
33266;SDS011;19638;49.080;11.896;2023-03-23T10:43:48;5.25;;;3.40;;
33266;SDS011;19638;49.080;11.896;2023-03-23T10:47:52;6.55;;;3.33;;
33266;SDS011;19638;49.080;11.896;2023-03-23T10:52:01;5.55;;;3.25;;
33266;SDS011;19638;49.080;11.896;2023-03-23T10:56:19;9.30;;;4.97;;
33266;SDS011;19638;49.080;11.896;2023-03-23T11:00:24;6.78;;;5.13;;
33266;SDS011;19638;49.080;11.896;2023-03-23T11:04:31;5.53;;;3.78;;
33266;SDS011;19638;49.080;11.896;2023-03-23T11:08:36;3.20;;;2.90;;
33266;SDS011;19638;49.080;11.896;2023-03-23T11:12:48;6.80;;;3.55;;
33266;SDS011;19638;49.080;11.896;2023-03-23T11:16:53;3.53;;;3.20;;
33266;SDS011;19638;49.080;11.896;2023-03-23T11:21:02;5.18;;;3.42;;
33266;SDS011;19638;49.080;11.896;2023-03-23T11:25:05;2.92;;;2.72;;
33266;SDS011;19638;49.080;11.896;2023-03-23T11:29:08;4.18;;;2.53;;
33266;SDS011;19638;49.080;11.896;2023-03-23T11:33:16;5.80;;;2.50;;
33266;SDS011;19638;49.080;11.896;2023-03-23T11:37:24;2.35;;;2.20;;
33266;SDS011;19638;49.080;11.896;2023-03-23T11:41:31;2.97;;;2.47;;
33266;SDS011;19638;49.080;11.896;2023-03-23T11:45:35;2.45;;;2.30;;
33266;SDS011;19638;49.080;11.896;2023-03-23T11:49:41;2.70;;;2.50;;
33266;SDS011;19638;49.080;11.896;2023-03-23T11:53:54;2.13;;;1.85;;
33266;SDS011;19638;49.080;11.896;2023-03-23T11:58:00;2.55;;;2.20;;
33266;SDS011;19638;49.080;11.896;2023-03-23T12:02:29;2.17;;;2.05;;
33266;SDS011;19638;49.080;11.896;2023-03-23T12:06:41;2.35;;;2.15;;
33266;SDS011;19638;49.080;11.896;2023-03-23T12:10:52;2.78;;;2.30;;
33266;SDS011;19638;49.080;11.896;2023-03-23T12:15:01;7.07;;;2.80;;
33266;SDS011;19638;49.080;11.896;2023-03-23T12:19:11;3.13;;;2.20;;
33266;SDS011;19638;49.080;11.896;2023-03-23T12:23:22;2.05;;;1.95;;
33266;SDS011;19638;49.080;11.896;2023-03-23T12:27:28;2.70;;;2.42;;
33266;SDS011;19638;49.080;11.896;2023-03-23T12:31:37;4.30;;;2.50;;
33266;SDS011;19638;49.080;11.896;2023-03-23T12:35:52;5.43;;;2.88;;
33266;SDS011;19638;49.080;11.896;2023-03-23T12:44:46;3.05;;;2.25;;
33266;SDS011;19638;49.080;11.896;2023-03-23T12:48:51;6.15;;;2.10;;
33266;SDS011;19638;49.080;11.896;2023-03-23T12:52:58;2.25;;;2.13;;
33266;SDS011;19638;49.080;11.896;2023-03-23T12:57:06;1.85;;;1.70;;
33266;SDS011;19638;49.080;11.896;2023-03-23T13:01:16;3.55;;;2.28;;
33266;SDS011;19638;49.080;11.896;2023-03-23T13:05:32;2.30;;;2.08;;
33266;SDS011;19638;49.080;11.896;2023-03-23T13:09:47;2.38;;;2.10;;
33266;SDS011;19638;49.080;11.896;2023-03-23T13:13:58;3.47;;;2.17;;
33266;SDS011;19638;49.080;11.896;2023-03-23T13:18:16;2.30;;;2.10;;
33266;SDS011;19638;49.080;11.896;2023-03-23T13:22:25;3.83;;;1.88;;
33266;SDS011;19638;49.080;11.896;2023-03-23T13:26:36;3.13;;;1.98;;
33266;SDS011;19638;49.080;11.896;2023-03-23T13:30:41;3.35;;;2.05;;
33266;SDS011;19638;49.080;11.896;2023-03-23T13:35:01;2.63;;;2.05;;
33266;SDS011;19638;49.080;11.896;2023-03-23T13:39:17;4.97;;;2.40;;
33266;SDS011;19638;49.080;11.896;2023-03-23T13:43:25;2.20;;;2.00;;
33266;SDS011;19638;49.080;11.896;2023-03-23T13:48:22;2.03;;;1.92;;
33266;SDS011;19638;49.080;11.896;2023-03-23T13:52:36;1.67;;;1.60;;
33266;SDS011;19638;49.080;11.896;2023-03-23T13:56:40;4.63;;;2.00;;
33266;SDS011;19638;49.080;11.896;2023-03-23T14:00:47;3.85;;;1.80;;
33266;SDS011;19638;49.080;11.896;2023-03-23T14:04:53;5.00;;;2.35;;
33266;SDS011;19638;49.080;11.896;2023-03-23T14:09:03;2.28;;;2.08;;
33266;SDS011;19638;49.080;11.896;2023-03-23T14:13:16;2.20;;;2.00;;
33266;SDS011;19638;49.080;11.896;2023-03-23T14:17:21;1.85;;;1.70;;
33266;SDS011;19638;49.080;11.896;2023-03-23T14:21:35;2.25;;;2.05;;
33266;SDS011;19638;49.080;11.896;2023-03-23T14:25:42;2.10;;;1.88;;
33266;SDS011;19638;49.080;11.896;2023-03-23T14:29:44;2.15;;;2.05;;
33266;SDS011;19638;49.080;11.896;2023-03-23T14:33:47;2.67;;;2.00;;
33266;SDS011;19638;49.080;11.896;2023-03-23T14:37:54;3.83;;;1.95;;
33266;SDS011;19638;49.080;11.896;2023-03-23T14:42:00;2.20;;;2.00;;
33266;SDS011;19638;49.080;11.896;2023-03-23T14:46:07;1.70;;;1.70;;
33266;SDS011;19638;49.080;11.896;2023-03-23T14:54:53;2.28;;;2.05;;
33266;SDS011;19638;49.080;11.896;2023-03-23T14:59:02;4.53;;;2.30;;
33266;SDS011;19638;49.080;11.896;2023-03-23T15:03:06;3.85;;;2.00;;
33266;SDS011;19638;49.080;11.896;2023-03-23T15:07:13;1.90;;;1.80;;
33266;SDS011;19638;49.080;11.896;2023-03-23T15:11:22;2.75;;;2.38;;
33266;SDS011;19638;49.080;11.896;2023-03-23T15:15:27;2.13;;;2.03;;
33266;SDS011;19638;49.080;11.896;2023-03-23T15:19:32;2.78;;;2.05;;
33266;SDS011;19638;49.080;11.896;2023-03-23T15:23:40;3.20;;;1.90;;
33266;SDS011;19638;49.080;11.896;2023-03-23T15:27:50;5.10;;;2.25;;
33266;SDS011;19638;49.080;11.896;2023-03-23T15:31:56;3.50;;;2.05;;
33266;SDS011;19638;49.080;11.896;2023-03-23T15:35:58;1.98;;;1.88;;
33266;SDS011;19638;49.080;11.896;2023-03-23T15:40:00;2.42;;;1.92;;
33266;SDS011;19638;49.080;11.896;2023-03-23T15:44:10;2.10;;;2.00;;
33266;SDS011;19638;49.080;11.896;2023-03-23T15:48:13;2.70;;;2.50;;
33266;SDS011;19638;49.080;11.896;2023-03-23T15:52:15;2.15;;;1.98;;
33266;SDS011;19638;49.080;11.896;2023-03-23T15:56:20;2.10;;;2.00;;
33266;SDS011;19638;49.080;11.896;2023-03-23T16:00:25;5.47;;;2.28;;
33266;SDS011;19638;49.080;11.896;2023-03-23T16:04:29;3.42;;;2.33;;
33266;SDS011;19638;49.080;11.896;2023-03-23T16:08:33;1.90;;;1.80;;
33266;SDS011;19638;49.080;11.896;2023-03-23T16:12:55;6.15;;;2.47;;
33266;SDS011;19638;49.080;11.896;2023-03-23T16:17:00;2.00;;;1.90;;
33266;SDS011;19638;49.080;11.896;2023-03-23T16:21:03;2.40;;;2.20;;
33266;SDS011;19638;49.080;11.896;2023-03-23T16:25:06;2.92;;;2.40;;
33266;SDS011;19638;49.080;11.896;2023-03-23T16:29:14;4.25;;;2.63;;
33266;SDS011;19638;49.080;11.896;2023-03-23T16:33:41;6.22;;;2.72;;
33266;SDS011;19638;49.080;11.896;2023-03-23T16:37:44;5.20;;;2.53;;
33266;SDS011;19638;49.080;11.896;2023-03-23T16:41:49;3.35;;;2.88;;
33266;SDS011;19638;49.080;11.896;2023-03-23T16:45:54;4.20;;;2.90;;
33266;SDS011;19638;49.080;11.896;2023-03-23T16:50:05;6.90;;;2.95;;
33266;SDS011;19638;49.080;11.896;2023-03-23T16:54:12;3.47;;;2.72;;
33266;SDS011;19638;49.080;11.896;2023-03-23T16:58:15;4.70;;;2.20;;
33266;SDS011;19638;49.080;11.896;2023-03-23T17:02:20;4.20;;;2.78;;
33266;SDS011;19638;49.080;11.896;2023-03-23T17:06:25;5.07;;;2.90;;
33266;SDS011;19638;49.080;11.896;2023-03-23T17:10:29;3.15;;;2.83;;
33266;SDS011;19638;49.080;11.896;2023-03-23T17:14:34;10.73;;;2.83;;
33266;SDS011;19638;49.080;11.896;2023-03-23T17:18:37;3.95;;;2.90;;
33266;SDS011;19638;49.080;11.896;2023-03-23T17:22:42;4.35;;;3.03;;
33266;SDS011;19638;49.080;11.896;2023-03-23T17:26:45;7.68;;;2.97;;
33266;SDS011;19638;49.080;11.896;2023-03-23T17:30:50;9.68;;;3.42;;
33266;SDS011;19638;49.080;11.896;2023-03-23T17:34:53;3.28;;;2.97;;
33266;SDS011;19638;49.080;11.896;2023-03-23T17:38:58;3.15;;;2.85;;
33266;SDS011;19638;49.080;11.896;2023-03-23T17:43:02;11.77;;;3.55;;
33266;SDS011;19638;49.080;11.896;2023-03-23T17:47:05;9.23;;;3.42;;
33266;SDS011;19638;49.080;11.896;2023-03-23T17:51:08;3.90;;;3.42;;
33266;SDS011;19638;49.080;11.896;2023-03-23T17:55:13;14.93;;;7.93;;
33266;SDS011;19638;49.080;11.896;2023-03-23T17:59:19;4.40;;;3.05;;
33266;SDS011;19638;49.080;11.896;2023-03-23T18:03:25;3.28;;;2.83;;
33266;SDS011;19638;49.080;11.896;2023-03-23T18:07:28;10.70;;;4.05;;
33266;SDS011;19638;49.080;11.896;2023-03-23T18:11:35;15.73;;;7.20;;
33266;SDS011;19638;49.080;11.896;2023-03-23T18:15:41;17.50;;;8.57;;
33266;SDS011;19638;49.080;11.896;2023-03-23T18:19:48;17.20;;;8.52;;
33266;SDS011;19638;49.080;11.896;2023-03-23T18:23:55;14.02;;;8.18;;
33266;SDS011;19638;49.080;11.896;2023-03-23T18:28:01;16.38;;;7.28;;
33266;SDS011;19638;49.080;11.896;2023-03-23T18:32:07;15.00;;;6.07;;
33266;SDS011;19638;49.080;11.896;2023-03-23T18:36:17;10.43;;;5.55;;
33266;SDS011;19638;49.080;11.896;2023-03-23T18:40:23;10.38;;;5.07;;
33266;SDS011;19638;49.080;11.896;2023-03-23T18:44:28;13.50;;;6.18;;
33266;SDS011;19638;49.080;11.896;2023-03-23T18:48:32;9.63;;;5.60;;
33266;SDS011;19638;49.080;11.896;2023-03-23T18:52:39;7.90;;;4.68;;
33266;SDS011;19638;49.080;11.896;2023-03-23T18:56:42;11.07;;;5.70;;
33266;SDS011;19638;49.080;11.896;2023-03-23T19:00:47;5.70;;;4.47;;
33266;SDS011;19638;49.080;11.896;2023-03-23T19:04:57;7.45;;;4.50;;
33266;SDS011;19638;49.080;11.896;2023-03-23T19:09:00;5.40;;;4.35;;
33266;SDS011;19638;49.080;11.896;2023-03-23T19:13:03;11.18;;;4.32;;
33266;SDS011;19638;49.080;11.896;2023-03-23T19:17:09;6.10;;;4.78;;
33266;SDS011;19638;49.080;11.896;2023-03-23T19:21:13;5.68;;;4.22;;
33266;SDS011;19638;49.080;11.896;2023-03-23T19:25:22;5.60;;;4.28;;
33266;SDS011;19638;49.080;11.896;2023-03-23T19:29:34;9.23;;;4.88;;
33266;SDS011;19638;49.080;11.896;2023-03-23T19:33:39;7.88;;;4.90;;
33266;SDS011;19638;49.080;11.896;2023-03-23T19:37:43;8.73;;;4.40;;
33266;SDS011;19638;49.080;11.896;2023-03-23T19:41:47;16.75;;;5.28;;
33266;SDS011;19638;49.080;11.896;2023-03-23T19:45:50;11.07;;;5.00;;
33266;SDS011;19638;49.080;11.896;2023-03-23T19:49:55;8.52;;;4.60;;
33266;SDS011;19638;49.080;11.896;2023-03-23T19:54:00;8.43;;;4.30;;
33266;SDS011;19638;49.080;11.896;2023-03-23T19:58:03;10.93;;;4.28;;
33266;SDS011;19638;49.080;11.896;2023-03-23T20:02:11;8.65;;;4.53;;
33266;SDS011;19638;49.080;11.896;2023-03-23T20:06:16;6.10;;;4.65;;
33266;SDS011;19638;49.080;11.896;2023-03-23T20:10:25;5.35;;;4.15;;
33266;SDS011;19638;49.080;11.896;2023-03-23T20:14:34;9.88;;;4.25;;
33266;SDS011;19638;49.080;11.896;2023-03-23T20:18:38;7.07;;;4.30;;
33266;SDS011;19638;49.080;11.896;2023-03-23T20:22:43;7.75;;;5.20;;
33266;SDS011;19638;49.080;11.896;2023-03-23T20:26:46;10.15;;;4.50;;
33266;SDS011;19638;49.080;11.896;2023-03-23T20:31:00;8.65;;;4.30;;
33266;SDS011;19638;49.080;11.896;2023-03-23T20:35:23;6.55;;;4.45;;
33266;SDS011;19638;49.080;11.896;2023-03-23T20:39:31;7.68;;;4.65;;
33266;SDS011;19638;49.080;11.896;2023-03-23T20:43:38;5.88;;;4.85;;
33266;SDS011;19638;49.080;11.896;2023-03-23T20:47:42;7.43;;;4.93;;
33266;SDS011;19638;49.080;11.896;2023-03-23T20:51:45;9.07;;;5.25;;
33266;SDS011;19638;49.080;11.896;2023-03-23T20:55:53;10.20;;;5.03;;
33266;SDS011;19638;49.080;11.896;2023-03-23T20:59:58;13.93;;;5.38;;
33266;SDS011;19638;49.080;11.896;2023-03-23T21:04:04;8.43;;;5.07;;
33266;SDS011;19638;49.080;11.896;2023-03-23T21:08:16;7.35;;;5.13;;
33266;SDS011;19638;49.080;11.896;2023-03-23T21:12:24;5.95;;;4.53;;
33266;SDS011;19638;49.080;11.896;2023-03-23T21:16:30;11.52;;;5.60;;
33266;SDS011;19638;49.080;11.896;2023-03-23T21:20:33;6.28;;;4.82;;
33266;SDS011;19638;49.080;11.896;2023-03-23T21:24:38;7.72;;;4.43;;
33266;SDS011;19638;49.080;11.896;2023-03-23T21:28:45;7.57;;;4.50;;
33266;SDS011;19638;49.080;11.896;2023-03-23T21:32:51;8.52;;;4.93;;
33266;SDS011;19638;49.080;11.896;2023-03-23T21:36:56;6.47;;;4.53;;
33266;SDS011;19638;49.080;11.896;2023-03-23T21:41:04;7.85;;;4.50;;
33266;SDS011;19638;49.080;11.896;2023-03-23T21:45:12;8.85;;;3.88;;
33266;SDS011;19638;49.080;11.896;2023-03-23T21:49:19;6.57;;;4.05;;
33266;SDS011;19638;49.080;11.896;2023-03-23T21:53:22;5.50;;;3.88;;
33266;SDS011;19638;49.080;11.896;2023-03-23T21:57:27;6.43;;;3.50;;
33266;SDS011;19638;49.080;11.896;2023-03-23T22:01:32;6.78;;;4.05;;
33266;SDS011;19638;49.080;11.896;2023-03-23T22:05:38;4.93;;;3.78;;
33266;SDS011;19638;49.080;11.896;2023-03-23T22:09:41;5.72;;;4.05;;
33266;SDS011;19638;49.080;11.896;2023-03-23T22:13:45;6.47;;;4.55;;
33266;SDS011;19638;49.080;11.896;2023-03-23T22:17:50;6.90;;;3.80;;
33266;SDS011;19638;49.080;11.896;2023-03-23T22:21:59;6.90;;;3.92;;
33266;SDS011;19638;49.080;11.896;2023-03-23T22:26:06;5.88;;;4.00;;
33266;SDS011;19638;49.080;11.896;2023-03-23T22:30:10;5.68;;;3.88;;
33266;SDS011;19638;49.080;11.896;2023-03-23T22:34:18;6.25;;;3.63;;
33266;SDS011;19638;49.080;11.896;2023-03-23T22:38:24;5.93;;;4.30;;
33266;SDS011;19638;49.080;11.896;2023-03-23T22:42:28;8.50;;;4.03;;
33266;SDS011;19638;49.080;11.896;2023-03-23T22:46:31;5.20;;;3.90;;
33266;SDS011;19638;49.080;11.896;2023-03-23T22:50:38;5.35;;;4.30;;
33266;SDS011;19638;49.080;11.896;2023-03-23T22:54:41;9.00;;;4.15;;
33266;SDS011;19638;49.080;11.896;2023-03-23T22:58:47;6.90;;;3.97;;
33266;SDS011;19638;49.080;11.896;2023-03-23T23:02:54;6.63;;;4.30;;
33266;SDS011;19638;49.080;11.896;2023-03-23T23:06:59;8.23;;;4.80;;
33266;SDS011;19638;49.080;11.896;2023-03-23T23:11:13;6.50;;;4.30;;
33266;SDS011;19638;49.080;11.896;2023-03-23T23:15:19;7.68;;;4.25;;
33266;SDS011;19638;49.080;11.896;2023-03-23T23:19:24;7.90;;;4.25;;
33266;SDS011;19638;49.080;11.896;2023-03-23T23:23:31;8.43;;;4.32;;
33266;SDS011;19638;49.080;11.896;2023-03-23T23:27:37;6.80;;;4.60;;
33266;SDS011;19638;49.080;11.896;2023-03-23T23:31:41;7.55;;;4.18;;
33266;SDS011;19638;49.080;11.896;2023-03-23T23:35:44;8.32;;;3.80;;
33266;SDS011;19638;49.080;11.896;2023-03-23T23:39:50;7.00;;;4.00;;
33266;SDS011;19638;49.080;11.896;2023-03-23T23:43:54;8.07;;;3.67;;
33266;SDS011;19638;49.080;11.896;2023-03-23T23:48:00;4.97;;;3.70;;
33266;SDS011;19638;49.080;11.896;2023-03-23T23:52:04;4.05;;;3.65;;
33266;SDS011;19638;49.080;11.896;2023-03-23T23:56:11;7.43;;;3.50;;
